sensor_id;sensor_type;location;lat;lon;timestamp;P1;durP1;ratioP1;P2;durP2;ratioP2
23252;SDS011;11795;47.054;15.408;2024-03-25T00:00:00;4.9;;;3.7;;
23252;SDS011;11795;47.054;15.408;2024-03-25T00:02:00;4.9;;;3.7;;
23252;SDS011;11795;47.054;15.408;2024-03-25T00:04:00;4.2;;;3.3;;
23252;SDS011;11795;47.054;15.408;2024-03-25T00:06:00;4.2;;;3.3;;
23252;SDS011;11795;47.054;15.408;2024-03-25T00:08:00;3.6;;;3.0;;
23252;SDS011;11795;47.054;15.408;2024-03-25T00:10:00;3.6;;;3.0;;
23252;SDS011;11795;47.054;15.408;2024-03-25T00:12:00;3.6;;;3.0;;
23252;SDS011;11795;47.054;15.408;2024-03-25T00:14:00;4.9;;;3.5;;
23252;SDS011;11795;47.054;15.408;2024-03-25T00:16:00;4.9;;;3.5;;
23252;SDS011;11795;47.054;15.408;2024-03-25T00:18:01;4.9;;;3.6;;
23252;SDS011;11795;47.054;15.408;2024-03-25T00:20:00;4.9;;;3.6;;
23252;SDS011;11795;47.054;15.408;2024-03-25T00:22:00;4.9;;;3.6;;
23252;SDS011;11795;47.054;15.408;2024-03-25T00:24:00;4.2;;;3.2;;
23252;SDS011;11795;47.054;15.408;2024-03-25T00:26:00;4.2;;;3.2;;
23252;SDS011;11795;47.054;15.408;2024-03-25T00:28:00;4.5;;;3.6;;
23252;SDS011;11795;47.054;15.408;2024-03-25T00:30:00;4.5;;;3.6;;
23252;SDS011;11795;47.054;15.408;2024-03-25T00:32:00;4.5;;;3.6;;
23252;SDS011;11795;47.054;15.408;2024-03-25T00:34:00;3.7;;;3.3;;
23252;SDS011;11795;47.054;15.408;2024-03-25T00:36:00;3.7;;;3.3;;
23252;SDS011;11795;47.054;15.408;2024-03-25T00:38:00;4.4;;;3.1;;
23252;SDS011;11795;47.054;15.408;2024-03-25T00:40:00;4.4;;;3.1;;
23252;SDS011;11795;47.054;15.408;2024-03-25T00:42:00;4.4;;;3.1;;
23252;SDS011;11795;47.054;15.408;2024-03-25T00:44:00;4.4;;;3.3;;
23252;SDS011;11795;47.054;15.408;2024-03-25T00:46:00;4.4;;;3.3;;
23252;SDS011;11795;47.054;15.408;2024-03-25T00:48:00;4.8;;;3.3;;
23252;SDS011;11795;47.054;15.408;2024-03-25T00:50:00;4.8;;;3.3;;
23252;SDS011;11795;47.054;15.408;2024-03-25T00:52:00;4.8;;;3.3;;
23252;SDS011;11795;47.054;15.408;2024-03-25T00:54:00;4.4;;;3.3;;
23252;SDS011;11795;47.054;15.408;2024-03-25T00:56:00;4.4;;;3.3;;
23252;SDS011;11795;47.054;15.408;2024-03-25T00:58:00;4.4;;;3.1;;
23252;SDS011;11795;47.054;15.408;2024-03-25T01:00:00;4.4;;;3.1;;
23252;SDS011;11795;47.054;15.408;2024-03-25T01:02:00;4.4;;;3.1;;
23252;SDS011;11795;47.054;15.408;2024-03-25T01:04:00;4.8;;;3.1;;
23252;SDS011;11795;47.054;15.408;2024-03-25T01:06:00;4.8;;;3.1;;
23252;SDS011;11795;47.054;15.408;2024-03-25T01:08:00;4.6;;;3.3;;
23252;SDS011;11795;47.054;15.408;2024-03-25T01:10:00;4.6;;;3.3;;
23252;SDS011;11795;47.054;15.408;2024-03-25T01:12:00;4.6;;;3.3;;
23252;SDS011;11795;47.054;15.408;2024-03-25T01:14:00;3.9;;;2.9;;
23252;SDS011;11795;47.054;15.408;2024-03-25T01:16:00;3.9;;;2.9;;
23252;SDS011;11795;47.054;15.408;2024-03-25T01:18:00;3.4;;;3.0;;
23252;SDS011;11795;47.054;15.408;2024-03-25T01:20:00;3.4;;;3.0;;
23252;SDS011;11795;47.054;15.408;2024-03-25T01:22:00;3.4;;;3.0;;
23252;SDS011;11795;47.054;15.408;2024-03-25T01:24:00;4.7;;;3.3;;
23252;SDS011;11795;47.054;15.408;2024-03-25T01:26:00;4.7;;;3.3;;
23252;SDS011;11795;47.054;15.408;2024-03-25T01:28:00;4.1;;;3.1;;
23252;SDS011;11795;47.054;15.408;2024-03-25T01:30:01;4.1;;;3.1;;
23252;SDS011;11795;47.054;15.408;2024-03-25T01:32:01;4.1;;;3.1;;
23252;SDS011;11795;47.054;15.408;2024-03-25T01:34:00;3.9;;;2.8;;
23252;SDS011;11795;47.054;15.408;2024-03-25T01:36:00;3.9;;;2.8;;
23252;SDS011;11795;47.054;15.408;2024-03-25T01:38:00;4.6;;;3.3;;
23252;SDS011;11795;47.054;15.408;2024-03-25T01:40:00;4.6;;;3.3;;
23252;SDS011;11795;47.054;15.408;2024-03-25T01:42:00;4.6;;;3.3;;
23252;SDS011;11795;47.054;15.408;2024-03-25T01:44:00;4.4;;;3.0;;
23252;SDS011;11795;47.054;15.408;2024-03-25T01:46:00;4.4;;;3.0;;
23252;SDS011;11795;47.054;15.408;2024-03-25T01:48:01;4.3;;;3.0;;
23252;SDS011;11795;47.054;15.408;2024-03-25T01:50:00;4.3;;;3.0;;
23252;SDS011;11795;47.054;15.408;2024-03-25T01:52:00;4.3;;;3.0;;
23252;SDS011;11795;47.054;15.408;2024-03-25T01:54:00;3.8;;;3.0;;
23252;SDS011;11795;47.054;15.408;2024-03-25T01:56:00;3.8;;;3.0;;
23252;SDS011;11795;47.054;15.408;2024-03-25T01:58:00;3.8;;;3.3;;
23252;SDS011;11795;47.054;15.408;2024-03-25T02:00:00;3.8;;;3.3;;
23252;SDS011;11795;47.054;15.408;2024-03-25T02:02:00;3.8;;;3.3;;
23252;SDS011;11795;47.054;15.408;2024-03-25T02:04:00;4.7;;;3.0;;
23252;SDS011;11795;47.054;15.408;2024-03-25T02:06:00;4.7;;;3.0;;
23252;SDS011;11795;47.054;15.408;2024-03-25T02:08:00;4.1;;;2.8;;
23252;SDS011;11795;47.054;15.408;2024-03-25T02:10:00;4.1;;;2.8;;
23252;SDS011;11795;47.054;15.408;2024-03-25T02:12:00;4.1;;;2.8;;
23252;SDS011;11795;47.054;15.408;2024-03-25T02:14:00;4.2;;;2.8;;
23252;SDS011;11795;47.054;15.408;2024-03-25T02:16:00;4.2;;;2.8;;
23252;SDS011;11795;47.054;15.408;2024-03-25T02:18:00;3.3;;;2.8;;
23252;SDS011;11795;47.054;15.408;2024-03-25T02:20:00;3.3;;;2.8;;
23252;SDS011;11795;47.054;15.408;2024-03-25T02:22:00;3.3;;;2.8;;
23252;SDS011;11795;47.054;15.408;2024-03-25T02:24:00;4.6;;;2.9;;
23252;SDS011;11795;47.054;15.408;2024-03-25T02:26:00;4.6;;;2.9;;
23252;SDS011;11795;47.054;15.408;2024-03-25T02:28:01;3.5;;;2.8;;
23252;SDS011;11795;47.054;15.408;2024-03-25T02:30:02;3.5;;;2.8;;
23252;SDS011;11795;47.054;15.408;2024-03-25T02:32:00;3.5;;;2.8;;
23252;SDS011;11795;47.054;15.408;2024-03-25T02:34:00;3.6;;;2.9;;
23252;SDS011;11795;47.054;15.408;2024-03-25T02:36:00;3.6;;;2.9;;
23252;SDS011;11795;47.054;15.408;2024-03-25T02:38:00;3.7;;;3.0;;
23252;SDS011;11795;47.054;15.408;2024-03-25T02:40:01;3.7;;;3.0;;
23252;SDS011;11795;47.054;15.408;2024-03-25T02:42:00;3.7;;;3.0;;
23252;SDS011;11795;47.054;15.408;2024-03-25T02:44:00;3.2;;;2.6;;
23252;SDS011;11795;47.054;15.408;2024-03-25T02:46:00;3.2;;;2.6;;
23252;SDS011;11795;47.054;15.408;2024-03-25T02:48:00;3.1;;;2.7;;
23252;SDS011;11795;47.054;15.408;2024-03-25T02:50:00;3.1;;;2.7;;
23252;SDS011;11795;47.054;15.408;2024-03-25T02:52:00;3.1;;;2.7;;
23252;SDS011;11795;47.054;15.408;2024-03-25T02:54:00;3.8;;;2.9;;
23252;SDS011;11795;47.054;15.408;2024-03-25T02:56:00;3.8;;;2.9;;
23252;SDS011;11795;47.054;15.408;2024-03-25T02:58:00;3.9;;;3.0;;
23252;SDS011;11795;47.054;15.408;2024-03-25T03:00:00;3.9;;;3.0;;
23252;SDS011;11795;47.054;15.408;2024-03-25T03:02:00;3.9;;;3.0;;
23252;SDS011;11795;47.054;15.408;2024-03-25T03:04:00;3.9;;;3.0;;
23252;SDS011;11795;47.054;15.408;2024-03-25T03:06:00;3.9;;;3.0;;
23252;SDS011;11795;47.054;15.408;2024-03-25T03:08:00;3.4;;;2.7;;
23252;SDS011;11795;47.054;15.408;2024-03-25T03:10:00;3.4;;;2.7;;
23252;SDS011;11795;47.054;15.408;2024-03-25T03:12:00;3.4;;;2.7;;
23252;SDS011;11795;47.054;15.408;2024-03-25T03:14:00;4.3;;;3.1;;
23252;SDS011;11795;47.054;15.408;2024-03-25T03:16:00;4.3;;;3.1;;
23252;SDS011;11795;47.054;15.408;2024-03-25T03:18:00;3.4;;;3.1;;
23252;SDS011;11795;47.054;15.408;2024-03-25T03:20:00;3.4;;;3.1;;
23252;SDS011;11795;47.054;15.408;2024-03-25T03:22:00;3.4;;;3.1;;
23252;SDS011;11795;47.054;15.408;2024-03-25T03:24:00;4.9;;;3.3;;
23252;SDS011;11795;47.054;15.408;2024-03-25T03:26:00;4.9;;;3.3;;
23252;SDS011;11795;47.054;15.408;2024-03-25T03:28:00;3.8;;;3.2;;
23252;SDS011;11795;47.054;15.408;2024-03-25T03:30:00;3.8;;;3.2;;
23252;SDS011;11795;47.054;15.408;2024-03-25T03:32:00;3.8;;;3.2;;
23252;SDS011;11795;47.054;15.408;2024-03-25T03:34:00;4.8;;;3.1;;
23252;SDS011;11795;47.054;15.408;2024-03-25T03:36:00;4.8;;;3.1;;
23252;SDS011;11795;47.054;15.408;2024-03-25T03:38:00;3.9;;;3.2;;
23252;SDS011;11795;47.054;15.408;2024-03-25T03:40:00;3.9;;;3.2;;
23252;SDS011;11795;47.054;15.408;2024-03-25T03:42:00;3.9;;;3.2;;
23252;SDS011;11795;47.054;15.408;2024-03-25T03:44:00;4.0;;;3.4;;
23252;SDS011;11795;47.054;15.408;2024-03-25T03:46:00;4.0;;;3.4;;
23252;SDS011;11795;47.054;15.408;2024-03-25T03:48:00;4.4;;;3.2;;
23252;SDS011;11795;47.054;15.408;2024-03-25T03:50:00;4.4;;;3.2;;
23252;SDS011;11795;47.054;15.408;2024-03-25T03:52:00;4.4;;;3.2;;
23252;SDS011;11795;47.054;15.408;2024-03-25T03:54:00;4.1;;;3.6;;
23252;SDS011;11795;47.054;15.408;2024-03-25T03:56:02;4.1;;;3.6;;
23252;SDS011;11795;47.054;15.408;2024-03-25T03:58:00;4.5;;;3.7;;
23252;SDS011;11795;47.054;15.408;2024-03-25T04:00:00;4.5;;;3.7;;
23252;SDS011;11795;47.054;15.408;2024-03-25T04:02:00;4.5;;;3.7;;
23252;SDS011;11795;47.054;15.408;2024-03-25T04:04:00;5.0;;;3.6;;
23252;SDS011;11795;47.054;15.408;2024-03-25T04:06:07;5.0;;;3.6;;
23252;SDS011;11795;47.054;15.408;2024-03-25T04:08:00;4.7;;;3.7;;
23252;SDS011;11795;47.054;15.408;2024-03-25T04:10:00;4.7;;;3.7;;
23252;SDS011;11795;47.054;15.408;2024-03-25T04:12:00;4.7;;;3.7;;
23252;SDS011;11795;47.054;15.408;2024-03-25T04:14:00;5.1;;;4.0;;
23252;SDS011;11795;47.054;15.408;2024-03-25T04:16:01;5.1;;;4.0;;
23252;SDS011;11795;47.054;15.408;2024-03-25T04:18:00;5.0;;;3.6;;
23252;SDS011;11795;47.054;15.408;2024-03-25T04:20:00;5.0;;;3.6;;
23252;SDS011;11795;47.054;15.408;2024-03-25T04:22:00;5.0;;;3.6;;
23252;SDS011;11795;47.054;15.408;2024-03-25T04:24:00;5.0;;;3.5;;
23252;SDS011;11795;47.054;15.408;2024-03-25T04:26:00;5.0;;;3.5;;
23252;SDS011;11795;47.054;15.408;2024-03-25T04:28:00;3.8;;;3.1;;
23252;SDS011;11795;47.054;15.408;2024-03-25T04:30:00;3.8;;;3.1;;
23252;SDS011;11795;47.054;15.408;2024-03-25T04:32:00;3.8;;;3.1;;
23252;SDS011;11795;47.054;15.408;2024-03-25T04:34:00;4.2;;;3.4;;
23252;SDS011;11795;47.054;15.408;2024-03-25T04:36:00;4.2;;;3.4;;
23252;SDS011;11795;47.054;15.408;2024-03-25T04:38:00;4.3;;;3.3;;
23252;SDS011;11795;47.054;15.408;2024-03-25T04:40:00;4.3;;;3.3;;
23252;SDS011;11795;47.054;15.408;2024-03-25T04:42:00;4.3;;;3.3;;
23252;SDS011;11795;47.054;15.408;2024-03-25T04:44:00;4.1;;;3.1;;
23252;SDS011;11795;47.054;15.408;2024-03-25T04:46:00;4.1;;;3.1;;
23252;SDS011;11795;47.054;15.408;2024-03-25T04:48:00;6.6;;;3.8;;
23252;SDS011;11795;47.054;15.408;2024-03-25T04:50:00;6.6;;;3.8;;
23252;SDS011;11795;47.054;15.408;2024-03-25T04:52:00;6.6;;;3.8;;
23252;SDS011;11795;47.054;15.408;2024-03-25T04:54:00;4.5;;;3.3;;
23252;SDS011;11795;47.054;15.408;2024-03-25T04:56:00;4.5;;;3.3;;
23252;SDS011;11795;47.054;15.408;2024-03-25T04:58:00;4.0;;;3.3;;
23252;SDS011;11795;47.054;15.408;2024-03-25T05:00:00;4.0;;;3.3;;
23252;SDS011;11795;47.054;15.408;2024-03-25T05:02:00;4.0;;;3.3;;
23252;SDS011;11795;47.054;15.408;2024-03-25T05:04:00;4.0;;;3.3;;
23252;SDS011;11795;47.054;15.408;2024-03-25T05:06:00;4.0;;;3.3;;
23252;SDS011;11795;47.054;15.408;2024-03-25T05:08:03;3.6;;;3.0;;
23252;SDS011;11795;47.054;15.408;2024-03-25T05:10:00;3.6;;;3.0;;
23252;SDS011;11795;47.054;15.408;2024-03-25T05:12:00;3.6;;;3.0;;
23252;SDS011;11795;47.054;15.408;2024-03-25T05:14:00;4.3;;;3.4;;
23252;SDS011;11795;47.054;15.408;2024-03-25T05:16:00;4.3;;;3.4;;
23252;SDS011;11795;47.054;15.408;2024-03-25T05:18:00;4.2;;;3.3;;
23252;SDS011;11795;47.054;15.408;2024-03-25T05:20:00;4.2;;;3.3;;
23252;SDS011;11795;47.054;15.408;2024-03-25T05:22:00;4.2;;;3.3;;
23252;SDS011;11795;47.054;15.408;2024-03-25T05:24:00;4.2;;;3.1;;
23252;SDS011;11795;47.054;15.408;2024-03-25T05:26:00;4.2;;;3.1;;
23252;SDS011;11795;47.054;15.408;2024-03-25T05:28:00;4.1;;;3.3;;
23252;SDS011;11795;47.054;15.408;2024-03-25T05:30:00;4.1;;;3.3;;
23252;SDS011;11795;47.054;15.408;2024-03-25T05:32:01;4.1;;;3.3;;
23252;SDS011;11795;47.054;15.408;2024-03-25T05:34:02;4.7;;;3.1;;
23252;SDS011;11795;47.054;15.408;2024-03-25T05:36:00;4.7;;;3.1;;
23252;SDS011;11795;47.054;15.408;2024-03-25T05:38:01;3.1;;;2.6;;
23252;SDS011;11795;47.054;15.408;2024-03-25T05:40:00;3.1;;;2.6;;
23252;SDS011;11795;47.054;15.408;2024-03-25T05:42:00;3.1;;;2.6;;
23252;SDS011;11795;47.054;15.408;2024-03-25T05:44:00;3.8;;;3.2;;
23252;SDS011;11795;47.054;15.408;2024-03-25T05:46:00;3.8;;;3.2;;
23252;SDS011;11795;47.054;15.408;2024-03-25T05:48:00;4.3;;;3.4;;
23252;SDS011;11795;47.054;15.408;2024-03-25T05:50:02;4.3;;;3.4;;
23252;SDS011;11795;47.054;15.408;2024-03-25T05:52:00;4.3;;;3.4;;
23252;SDS011;11795;47.054;15.408;2024-03-25T05:54:00;3.5;;;3.1;;
23252;SDS011;11795;47.054;15.408;2024-03-25T05:56:00;3.5;;;3.1;;
23252;SDS011;11795;47.054;15.408;2024-03-25T05:58:00;3.9;;;3.2;;
23252;SDS011;11795;47.054;15.408;2024-03-25T06:00:00;3.9;;;3.2;;
23252;SDS011;11795;47.054;15.408;2024-03-25T06:02:00;3.9;;;3.2;;
23252;SDS011;11795;47.054;15.408;2024-03-25T06:04:00;4.0;;;3.1;;
23252;SDS011;11795;47.054;15.408;2024-03-25T06:06:01;4.0;;;3.1;;
23252;SDS011;11795;47.054;15.408;2024-03-25T06:08:00;4.2;;;3.4;;
23252;SDS011;11795;47.054;15.408;2024-03-25T06:10:00;4.2;;;3.4;;
23252;SDS011;11795;47.054;15.408;2024-03-25T06:12:00;4.2;;;3.4;;
23252;SDS011;11795;47.054;15.408;2024-03-25T06:14:00;5.5;;;3.5;;
23252;SDS011;11795;47.054;15.408;2024-03-25T06:16:00;5.5;;;3.5;;
23252;SDS011;11795;47.054;15.408;2024-03-25T06:18:00;4.5;;;3.0;;
23252;SDS011;11795;47.054;15.408;2024-03-25T06:20:00;4.5;;;3.0;;
23252;SDS011;11795;47.054;15.408;2024-03-25T06:22:00;4.5;;;3.0;;
23252;SDS011;11795;47.054;15.408;2024-03-25T06:24:00;4.0;;;3.1;;
23252;SDS011;11795;47.054;15.408;2024-03-25T06:26:00;4.0;;;3.1;;
23252;SDS011;11795;47.054;15.408;2024-03-25T06:28:00;4.2;;;3.1;;
23252;SDS011;11795;47.054;15.408;2024-03-25T06:36:00;6.1;;;3.6;;
23252;SDS011;11795;47.054;15.408;2024-03-25T06:38:00;6.0;;;4.5;;
23252;SDS011;11795;47.054;15.408;2024-03-25T06:40:00;6.0;;;4.5;;
23252;SDS011;11795;47.054;15.408;2024-03-25T06:42:00;6.0;;;4.5;;
23252;SDS011;11795;47.054;15.408;2024-03-25T06:44:00;6.8;;;5.0;;
23252;SDS011;11795;47.054;15.408;2024-03-25T06:46:00;6.8;;;5.0;;
23252;SDS011;11795;47.054;15.408;2024-03-25T06:48:00;6.2;;;4.7;;
23252;SDS011;11795;47.054;15.408;2024-03-25T06:50:00;6.2;;;4.7;;
23252;SDS011;11795;47.054;15.408;2024-03-25T06:52:00;6.2;;;4.7;;
23252;SDS011;11795;47.054;15.408;2024-03-25T06:54:00;7.7;;;5.8;;
23252;SDS011;11795;47.054;15.408;2024-03-25T06:56:01;7.7;;;5.8;;
23252;SDS011;11795;47.054;15.408;2024-03-25T06:58:00;8.4;;;5.8;;
23252;SDS011;11795;47.054;15.408;2024-03-25T07:00:00;8.4;;;5.8;;
23252;SDS011;11795;47.054;15.408;2024-03-25T07:02:00;8.4;;;5.8;;
23252;SDS011;11795;47.054;15.408;2024-03-25T07:04:01;8.4;;;6.5;;
23252;SDS011;11795;47.054;15.408;2024-03-25T07:06:00;8.4;;;6.5;;
23252;SDS011;11795;47.054;15.408;2024-03-25T07:08:00;7.6;;;5.6;;
23252;SDS011;11795;47.054;15.408;2024-03-25T07:10:00;7.6;;;5.6;;
23252;SDS011;11795;47.054;15.408;2024-03-25T07:12:00;7.6;;;5.6;;
23252;SDS011;11795;47.054;15.408;2024-03-25T07:14:00;8.7;;;5.7;;
23252;SDS011;11795;47.054;15.408;2024-03-25T07:16:00;8.7;;;5.7;;
23252;SDS011;11795;47.054;15.408;2024-03-25T07:18:00;8.5;;;5.5;;
23252;SDS011;11795;47.054;15.408;2024-03-25T07:20:01;8.5;;;5.5;;
23252;SDS011;11795;47.054;15.408;2024-03-25T07:22:00;8.5;;;5.5;;
23252;SDS011;11795;47.054;15.408;2024-03-25T07:24:00;7.0;;;5.1;;
23252;SDS011;11795;47.054;15.408;2024-03-25T07:40:00;5.8;;;4.4;;
23252;SDS011;11795;47.054;15.408;2024-03-25T07:42:00;5.8;;;4.4;;
23252;SDS011;11795;47.054;15.408;2024-03-25T07:44:00;5.2;;;4.4;;
23252;SDS011;11795;47.054;15.408;2024-03-25T07:46:00;5.2;;;4.4;;
23252;SDS011;11795;47.054;15.408;2024-03-25T07:48:00;7.6;;;4.4;;
23252;SDS011;11795;47.054;15.408;2024-03-25T07:50:00;7.6;;;4.4;;
23252;SDS011;11795;47.054;15.408;2024-03-25T07:52:00;7.6;;;4.4;;
23252;SDS011;11795;47.054;15.408;2024-03-25T07:54:00;5.7;;;4.2;;
23252;SDS011;11795;47.054;15.408;2024-03-25T07:56:00;5.7;;;4.2;;
23252;SDS011;11795;47.054;15.408;2024-03-25T07:58:00;7.1;;;4.8;;
23252;SDS011;11795;47.054;15.408;2024-03-25T08:00:00;7.1;;;4.8;;
23252;SDS011;11795;47.054;15.408;2024-03-25T08:02:00;7.1;;;4.8;;
23252;SDS011;11795;47.054;15.408;2024-03-25T08:04:02;5.2;;;3.9;;
23252;SDS011;11795;47.054;15.408;2024-03-25T08:06:00;5.2;;;3.9;;
23252;SDS011;11795;47.054;15.408;2024-03-25T08:08:00;5.9;;;4.5;;
23252;SDS011;11795;47.054;15.408;2024-03-25T08:10:00;5.9;;;4.5;;
23252;SDS011;11795;47.054;15.408;2024-03-25T08:12:00;5.9;;;4.5;;
23252;SDS011;11795;47.054;15.408;2024-03-25T08:14:00;7.4;;;4.5;;
23252;SDS011;11795;47.054;15.408;2024-03-25T08:16:00;7.4;;;4.5;;
23252;SDS011;11795;47.054;15.408;2024-03-25T08:18:00;6.5;;;4.8;;
23252;SDS011;11795;47.054;15.408;2024-03-25T08:20:00;6.5;;;4.8;;
23252;SDS011;11795;47.054;15.408;2024-03-25T08:22:00;6.5;;;4.8;;
23252;SDS011;11795;47.054;15.408;2024-03-25T08:24:00;5.6;;;4.1;;
23252;SDS011;11795;47.054;15.408;2024-03-25T08:26:01;5.6;;;4.1;;
23252;SDS011;11795;47.054;15.408;2024-03-25T08:28:00;4.3;;;3.5;;
23252;SDS011;11795;47.054;15.408;2024-03-25T08:30:00;4.3;;;3.5;;
23252;SDS011;11795;47.054;15.408;2024-03-25T08:32:00;4.3;;;3.5;;
23252;SDS011;11795;47.054;15.408;2024-03-25T08:34:00;4.7;;;3.5;;
23252;SDS011;11795;47.054;15.408;2024-03-25T08:36:00;4.7;;;3.5;;
23252;SDS011;11795;47.054;15.408;2024-03-25T08:38:00;5.6;;;3.5;;
23252;SDS011;11795;47.054;15.408;2024-03-25T08:40:00;5.6;;;3.5;;
23252;SDS011;11795;47.054;15.408;2024-03-25T08:42:00;5.6;;;3.5;;
23252;SDS011;11795;47.054;15.408;2024-03-25T08:44:00;5.8;;;3.5;;
23252;SDS011;11795;47.054;15.408;2024-03-25T08:46:00;5.8;;;3.5;;
23252;SDS011;11795;47.054;15.408;2024-03-25T08:54:00;2.4;;;1.8;;
23252;SDS011;11795;47.054;15.408;2024-03-25T08:56:00;2.4;;;1.8;;
23252;SDS011;11795;47.054;15.408;2024-03-25T08:58:00;2.2;;;1.3;;
23252;SDS011;11795;47.054;15.408;2024-03-25T09:00:00;2.2;;;1.3;;
23252;SDS011;11795;47.054;15.408;2024-03-25T09:02:00;2.2;;;1.3;;
23252;SDS011;11795;47.054;15.408;2024-03-25T09:04:00;2.0;;;1.2;;
23252;SDS011;11795;47.054;15.408;2024-03-25T09:06:01;2.0;;;1.2;;
23252;SDS011;11795;47.054;15.408;2024-03-25T09:08:00;2.1;;;1.3;;
23252;SDS011;11795;47.054;15.408;2024-03-25T09:12:00;2.1;;;1.3;;
23252;SDS011;11795;47.054;15.408;2024-03-25T09:14:04;1.8;;;1.0;;
23252;SDS011;11795;47.054;15.408;2024-03-25T09:16:00;1.8;;;1.0;;
23252;SDS011;11795;47.054;15.408;2024-03-25T09:18:00;1.8;;;1.0;;
23252;SDS011;11795;47.054;15.408;2024-03-25T09:20:01;1.6;;;1.2;;
23252;SDS011;11795;47.054;15.408;2024-03-25T09:22:00;1.6;;;1.2;;
23252;SDS011;11795;47.054;15.408;2024-03-25T09:24:00;1.7;;;1.1;;
23252;SDS011;11795;47.054;15.408;2024-03-25T09:26:00;1.7;;;1.1;;
23252;SDS011;11795;47.054;15.408;2024-03-25T09:28:01;1.7;;;1.1;;
23252;SDS011;11795;47.054;15.408;2024-03-25T09:30:00;1.4;;;0.7;;
23252;SDS011;11795;47.054;15.408;2024-03-25T09:32:00;1.4;;;0.7;;
23252;SDS011;11795;47.054;15.408;2024-03-25T09:34:00;1.6;;;0.9;;
23252;SDS011;11795;47.054;15.408;2024-03-25T09:36:00;1.6;;;0.9;;
23252;SDS011;11795;47.054;15.408;2024-03-25T09:38:00;1.6;;;0.9;;
23252;SDS011;11795;47.054;15.408;2024-03-25T09:40:00;1.9;;;0.8;;
23252;SDS011;11795;47.054;15.408;2024-03-25T09:42:01;1.9;;;0.8;;
23252;SDS011;11795;47.054;15.408;2024-03-25T09:44:00;1.7;;;0.8;;
23252;SDS011;11795;47.054;15.408;2024-03-25T09:46:00;1.7;;;0.8;;
23252;SDS011;11795;47.054;15.408;2024-03-25T09:48:00;1.7;;;0.8;;
23252;SDS011;11795;47.054;15.408;2024-03-25T09:50:01;1.1;;;0.6;;
23252;SDS011;11795;47.054;15.408;2024-03-25T09:52:00;1.1;;;0.6;;
23252;SDS011;11795;47.054;15.408;2024-03-25T09:54:00;0.9;;;0.6;;
23252;SDS011;11795;47.054;15.408;2024-03-25T09:56:00;0.9;;;0.6;;
23252;SDS011;11795;47.054;15.408;2024-03-25T09:58:00;0.9;;;0.6;;
23252;SDS011;11795;47.054;15.408;2024-03-25T10:00:00;1.1;;;0.6;;
23252;SDS011;11795;47.054;15.408;2024-03-25T10:02:01;1.1;;;0.6;;
23252;SDS011;11795;47.054;15.408;2024-03-25T10:04:00;1.2;;;0.8;;
23252;SDS011;11795;47.054;15.408;2024-03-25T10:06:00;1.2;;;0.8;;
23252;SDS011;11795;47.054;15.408;2024-03-25T10:08:00;1.2;;;0.8;;
23252;SDS011;11795;47.054;15.408;2024-03-25T10:10:03;1.7;;;0.7;;
23252;SDS011;11795;47.054;15.408;2024-03-25T10:12:00;1.7;;;0.7;;
23252;SDS011;11795;47.054;15.408;2024-03-25T10:14:01;1.3;;;0.6;;
23252;SDS011;11795;47.054;15.408;2024-03-25T10:16:00;1.3;;;0.6;;
23252;SDS011;11795;47.054;15.408;2024-03-25T10:18:00;1.3;;;0.6;;
23252;SDS011;11795;47.054;15.408;2024-03-25T10:20:00;1.2;;;0.6;;
23252;SDS011;11795;47.054;15.408;2024-03-25T10:22:01;1.2;;;0.6;;
23252;SDS011;11795;47.054;15.408;2024-03-25T10:24:01;1.0;;;0.7;;
23252;SDS011;11795;47.054;15.408;2024-03-25T10:26:00;1.0;;;0.7;;
23252;SDS011;11795;47.054;15.408;2024-03-25T10:28:01;1.0;;;0.7;;
23252;SDS011;11795;47.054;15.408;2024-03-25T10:30:00;2.0;;;0.8;;
23252;SDS011;11795;47.054;15.408;2024-03-25T10:32:00;2.0;;;0.8;;
23252;SDS011;11795;47.054;15.408;2024-03-25T10:34:00;1.1;;;0.6;;
23252;SDS011;11795;47.054;15.408;2024-03-25T10:36:00;1.1;;;0.6;;
23252;SDS011;11795;47.054;15.408;2024-03-25T10:38:01;1.1;;;0.6;;
23252;SDS011;11795;47.054;15.408;2024-03-25T10:40:00;0.8;;;0.6;;
23252;SDS011;11795;47.054;15.408;2024-03-25T10:42:03;0.8;;;0.6;;
23252;SDS011;11795;47.054;15.408;2024-03-25T10:44:00;2.0;;;0.6;;
23252;SDS011;11795;47.054;15.408;2024-03-25T10:46:00;2.0;;;0.6;;
23252;SDS011;11795;47.054;15.408;2024-03-25T10:48:02;2.0;;;0.6;;
23252;SDS011;11795;47.054;15.408;2024-03-25T10:50:01;0.8;;;0.3;;
23252;SDS011;11795;47.054;15.408;2024-03-25T10:52:01;0.8;;;0.3;;
23252;SDS011;11795;47.054;15.408;2024-03-25T10:54:00;1.1;;;0.5;;
23252;SDS011;11795;47.054;15.408;2024-03-25T10:56:01;1.1;;;0.5;;
23252;SDS011;11795;47.054;15.408;2024-03-25T10:58:00;1.1;;;0.5;;
23252;SDS011;11795;47.054;15.408;2024-03-25T11:00:00;0.9;;;0.4;;
23252;SDS011;11795;47.054;15.408;2024-03-25T11:02:00;0.9;;;0.4;;
23252;SDS011;11795;47.054;15.408;2024-03-25T11:04:01;0.9;;;0.4;;
23252;SDS011;11795;47.054;15.408;2024-03-25T11:06:00;0.9;;;0.4;;
23252;SDS011;11795;47.054;15.408;2024-03-25T11:08:09;0.9;;;0.4;;
23252;SDS011;11795;47.054;15.408;2024-03-25T11:10:04;1.2;;;0.3;;
23252;SDS011;11795;47.054;15.408;2024-03-25T11:12:01;1.2;;;0.3;;
23252;SDS011;11795;47.054;15.408;2024-03-25T11:14:02;0.5;;;0.4;;
23252;SDS011;11795;47.054;15.408;2024-03-25T11:16:01;0.5;;;0.4;;
23252;SDS011;11795;47.054;15.408;2024-03-25T11:18:00;0.5;;;0.4;;
23252;SDS011;11795;47.054;15.408;2024-03-25T11:20:08;0.5;;;0.3;;
23252;SDS011;11795;47.054;15.408;2024-03-25T11:22:06;0.4;;;0.2;;
23252;SDS011;11795;47.054;15.408;2024-03-25T11:24:06;0.4;;;0.2;;
23252;SDS011;11795;47.054;15.408;2024-03-25T11:26:00;0.5;;;0.4;;
23252;SDS011;11795;47.054;15.408;2024-03-25T11:28:00;0.5;;;0.4;;
23252;SDS011;11795;47.054;15.408;2024-03-25T11:30:00;0.5;;;0.4;;
23252;SDS011;11795;47.054;15.408;2024-03-25T11:32:03;0.5;;;0.4;;
23252;SDS011;11795;47.054;15.408;2024-03-25T11:34:03;0.5;;;0.4;;
23252;SDS011;11795;47.054;15.408;2024-03-25T11:36:00;0.7;;;0.5;;
23252;SDS011;11795;47.054;15.408;2024-03-25T11:38:00;0.7;;;0.5;;
23252;SDS011;11795;47.054;15.408;2024-03-25T11:40:01;0.7;;;0.5;;
23252;SDS011;11795;47.054;15.408;2024-03-25T11:42:02;0.5;;;0.4;;
23252;SDS011;11795;47.054;15.408;2024-03-25T11:44:00;0.5;;;0.4;;
23252;SDS011;11795;47.054;15.408;2024-03-25T11:46:00;0.7;;;0.5;;
23252;SDS011;11795;47.054;15.408;2024-03-25T11:48:00;0.7;;;0.5;;
23252;SDS011;11795;47.054;15.408;2024-03-25T11:50:00;0.7;;;0.5;;
23252;SDS011;11795;47.054;15.408;2024-03-25T11:52:00;0.7;;;0.5;;
23252;SDS011;11795;47.054;15.408;2024-03-25T11:54:02;0.7;;;0.5;;
23252;SDS011;11795;47.054;15.408;2024-03-25T11:56:00;0.8;;;0.5;;
23252;SDS011;11795;47.054;15.408;2024-03-25T11:58:00;0.8;;;0.5;;
23252;SDS011;11795;47.054;15.408;2024-03-25T12:00:00;0.8;;;0.5;;
23252;SDS011;11795;47.054;15.408;2024-03-25T12:02:00;0.6;;;0.6;;
23252;SDS011;11795;47.054;15.408;2024-03-25T12:04:09;0.6;;;0.6;;
23252;SDS011;11795;47.054;15.408;2024-03-25T12:06:01;0.9;;;0.6;;
23252;SDS011;11795;47.054;15.408;2024-03-25T12:08:00;0.9;;;0.6;;
23252;SDS011;11795;47.054;15.408;2024-03-25T12:12:00;1.7;;;0.6;;
23252;SDS011;11795;47.054;15.408;2024-03-25T12:14:00;1.7;;;0.6;;
23252;SDS011;11795;47.054;15.408;2024-03-25T12:16:00;1.8;;;0.6;;
23252;SDS011;11795;47.054;15.408;2024-03-25T12:18:00;1.8;;;0.6;;
23252;SDS011;11795;47.054;15.408;2024-03-25T12:20:02;1.8;;;0.6;;
23252;SDS011;11795;47.054;15.408;2024-03-25T12:22:00;1.9;;;0.6;;
23252;SDS011;11795;47.054;15.408;2024-03-25T12:24:00;1.9;;;0.6;;
23252;SDS011;11795;47.054;15.408;2024-03-25T12:26:00;0.4;;;0.4;;
23252;SDS011;11795;47.054;15.408;2024-03-25T12:28:00;0.4;;;0.4;;
23252;SDS011;11795;47.054;15.408;2024-03-25T12:30:01;0.4;;;0.4;;
23252;SDS011;11795;47.054;15.408;2024-03-25T12:32:01;1.5;;;0.6;;
23252;SDS011;11795;47.054;15.408;2024-03-25T12:34:00;1.5;;;0.6;;
23252;SDS011;11795;47.054;15.408;2024-03-25T12:36:00;1.9;;;0.6;;
23252;SDS011;11795;47.054;15.408;2024-03-25T12:38:00;1.9;;;0.6;;
23252;SDS011;11795;47.054;15.408;2024-03-25T12:40:00;1.9;;;0.6;;
23252;SDS011;11795;47.054;15.408;2024-03-25T12:42:03;2.0;;;0.5;;